createdAt,value
2022-08-28T00:00:36.544Z,22.96
2022-08-28T00:03:05.983Z,22.96
2022-08-28T00:05:35.000Z,22.95
2022-08-28T00:08:03.737Z,22.95
2022-08-28T00:10:32.111Z,22.92
2022-08-28T00:13:00.487Z,22.90
2022-08-28T00:15:32.533Z,22.59
2022-08-28T00:18:01.881Z,22.91
2022-08-28T00:20:30.869Z,22.89
2022-08-28T00:23:00.618Z,22.90
2022-08-28T00:25:31.694Z,22.94
2022-08-28T00:28:05.310Z,22.93
2022-08-28T00:30:40.217Z,22.94
2022-08-28T00:33:11.967Z,22.79
2022-08-28T00:35:41.207Z,22.99
2022-08-28T00:38:09.753Z,22.97
2022-08-28T00:40:38.573Z,22.96
2022-08-28T00:43:09.128Z,22.94
2022-08-28T00:45:40.125Z,22.89
2022-08-28T00:48:08.996Z,22.96
2022-08-28T00:50:51.750Z,22.92
2022-08-28T00:53:21.284Z,22.90
2022-08-28T00:55:51.994Z,22.91
2022-08-28T00:58:20.349Z,22.91
2022-08-28T01:00:50.062Z,22.91
2022-08-28T01:03:18.200Z,22.94
2022-08-28T01:05:48.136Z,22.93
2022-08-28T01:08:16.899Z,22.93
2022-08-28T01:10:51.374Z,22.85
2022-08-28T01:13:19.854Z,22.91
2022-08-28T01:15:51.534Z,22.92
2022-08-28T01:18:21.381Z,22.93
2022-08-28T01:21:05.619Z,22.92
2022-08-28T01:23:51.315Z,22.92
2022-08-28T01:26:19.968Z,22.86
2022-08-28T01:28:48.087Z,22.92
2022-08-28T01:31:17.137Z,22.93
2022-08-28T01:33:47.542Z,22.94
2022-08-28T01:36:17.869Z,22.93
2022-08-28T01:38:51.117Z,22.93
2022-08-28T01:41:19.639Z,22.93
2022-08-28T01:43:47.767Z,22.92
2022-08-28T01:46:15.892Z,22.93
2022-08-28T01:48:45.505Z,22.94
2022-08-28T01:51:14.659Z,22.45
2022-08-28T01:53:46.547Z,22.94
2022-08-28T01:56:18.467Z,22.93
2022-08-28T01:58:48.439Z,22.94
2022-08-28T02:01:19.872Z,22.94
2022-08-28T02:03:48.891Z,22.92
2022-08-28T02:06:17.921Z,22.94
2022-08-28T02:08:46.764Z,22.94
2022-08-28T02:11:16.189Z,22.49
2022-08-28T02:13:44.659Z,22.76
2022-08-28T02:16:13.450Z,22.93
2022-08-28T02:18:42.026Z,22.79
2022-08-28T02:21:12.122Z,22.50
2022-08-28T02:23:41.371Z,22.94
2022-08-28T02:26:09.574Z,22.94
2022-08-28T02:28:39.245Z,22.96
2022-08-28T02:31:09.460Z,22.94
2022-08-28T02:33:38.501Z,22.94
2022-08-28T02:36:09.339Z,22.74
2022-08-28T02:38:38.120Z,22.94
2022-08-28T02:41:06.329Z,22.93
2022-08-28T02:43:34.521Z,22.93
2022-08-28T02:46:04.889Z,22.93
2022-08-28T02:48:34.729Z,22.92
2022-08-28T02:51:05.952Z,22.93
2022-08-28T02:53:34.488Z,22.92
2022-08-28T02:56:03.371Z,22.90
2022-08-28T02:58:32.304Z,22.92
2022-08-28T03:01:02.037Z,22.95
2022-08-28T03:03:32.726Z,22.70
2022-08-28T03:06:01.275Z,22.92
2022-08-28T03:08:30.309Z,22.94
2022-08-28T03:10:58.485Z,22.83
2022-08-28T03:13:27.509Z,22.96
2022-08-28T03:15:56.394Z,22.94
2022-08-28T03:18:25.414Z,22.94
2022-08-28T03:20:56.163Z,22.94
2022-08-28T03:23:26.475Z,22.94
2022-08-28T03:25:55.165Z,22.95
2022-08-28T03:28:23.178Z,22.85
2022-08-28T03:30:51.201Z,22.85
2022-08-28T03:33:20.206Z,22.96
2022-08-28T03:35:48.398Z,22.96
2022-08-28T03:38:19.133Z,22.97
2022-08-28T03:40:48.526Z,22.97
2022-08-28T03:43:19.240Z,22.97
2022-08-28T03:45:56.720Z,22.97
2022-08-28T03:48:25.404Z,22.96
2022-08-28T03:50:54.405Z,22.95
2022-08-28T03:53:27.912Z,22.90
2022-08-28T03:55:57.651Z,22.91
2022-08-28T03:58:26.601Z,22.88
2022-08-28T04:00:54.907Z,22.89
2022-08-28T04:03:23.112Z,22.45
2022-08-28T04:05:51.377Z,22.85
2022-08-28T04:08:21.045Z,22.92
2022-08-28T04:10:51.841Z,22.89
2022-08-28T04:13:21.646Z,22.83
2022-08-28T04:15:57.294Z,22.92
2022-08-28T04:18:26.171Z,22.92
2022-08-28T04:21:08.939Z,22.92
2022-08-28T04:23:37.217Z,22.92
2022-08-28T04:26:08.190Z,22.92
2022-08-28T04:28:36.712Z,22.92
2022-08-28T04:31:05.708Z,22.95
2022-08-28T04:33:34.581Z,22.96
2022-08-28T04:36:05.350Z,22.95
2022-08-28T04:38:33.498Z,22.80
2022-08-28T04:41:06.388Z,22.92
2022-08-28T04:43:34.467Z,22.90
2022-08-28T04:46:05.744Z,22.92
2022-08-28T04:48:33.897Z,22.92
2022-08-28T04:51:02.139Z,22.91
2022-08-28T04:53:30.213Z,22.91
2022-08-28T04:55:59.413Z,22.91
2022-08-28T04:58:30.623Z,22.90
2022-08-28T05:00:58.779Z,22.92
2022-08-28T05:03:26.870Z,22.92
2022-08-28T05:05:55.935Z,22.74
2022-08-28T05:08:27.854Z,22.93
2022-08-28T05:10:56.274Z,22.94
2022-08-28T05:13:24.411Z,22.90
2022-08-28T05:15:55.355Z,22.89
2022-08-28T05:18:25.653Z,22.93
2022-08-28T05:20:53.803Z,22.94
2022-08-28T05:23:22.107Z,22.94
2022-08-28T05:25:53.923Z,22.94
2022-08-28T05:28:24.530Z,22.91
2022-08-28T05:30:54.353Z,22.93
2022-08-28T05:33:22.461Z,22.93
2022-08-28T05:35:50.645Z,22.58
2022-08-28T05:38:18.736Z,22.93
2022-08-28T05:40:49.586Z,22.93
2022-08-28T05:43:18.687Z,22.93
2022-08-28T05:45:46.881Z,22.81
2022-08-28T05:48:16.426Z,22.93
2022-08-28T05:50:47.415Z,22.91
2022-08-28T05:53:17.113Z,22.95
2022-08-28T05:55:45.215Z,22.92
2022-08-28T05:58:33.750Z,22.83
2022-08-28T06:01:07.970Z,22.93
2022-08-28T06:03:39.411Z,22.93
2022-08-28T06:06:08.657Z,22.92
2022-08-28T06:08:37.959Z,22.91
2022-08-28T06:11:07.677Z,22.92
2022-08-28T06:13:37.686Z,22.93
2022-08-28T06:16:10.258Z,22.92
2022-08-28T06:18:39.774Z,22.93
2022-08-28T06:21:07.889Z,22.91
2022-08-28T06:23:36.010Z,22.91
2022-08-28T06:26:07.073Z,22.93
2022-08-28T06:28:35.335Z,22.93
2022-08-28T06:31:24.229Z,22.79
2022-08-28T06:33:54.766Z,22.92
2022-08-28T06:36:22.973Z,22.90
2022-08-28T06:38:51.044Z,22.91
2022-08-28T06:41:19.945Z,22.92
2022-08-28T06:43:48.062Z,22.93
2022-08-28T06:46:16.114Z,22.92
2022-08-28T06:48:44.659Z,22.94
2022-08-28T06:51:15.262Z,22.72
2022-08-28T06:53:45.266Z,22.94
2022-08-28T06:56:26.500Z,22.92
2022-08-28T06:58:57.010Z,22.93
2022-08-28T07:01:29.735Z,22.95
2022-08-28T07:04:00.589Z,22.94
2022-08-28T07:06:32.939Z,22.97
2022-08-28T07:09:01.510Z,22.97
2022-08-28T07:11:32.090Z,22.94
2022-08-28T07:14:01.312Z,22.94
2022-08-28T07:16:31.332Z,22.57
2022-08-28T07:19:00.116Z,22.98
2022-08-28T07:21:31.155Z,22.97
2022-08-28T07:23:59.388Z,22.94
2022-08-28T07:26:28.192Z,22.98
2022-08-28T07:29:09.492Z,22.95
2022-08-28T07:31:41.246Z,22.94
2022-08-28T07:34:10.644Z,22.87
2022-08-28T07:36:41.323Z,22.96
2022-08-28T07:39:10.143Z,22.96
2022-08-28T07:41:40.433Z,22.94
2022-08-28T07:44:27.105Z,22.93
2022-08-28T07:46:56.245Z,22.92
2022-08-28T07:49:25.091Z,22.84
2022-08-28T07:51:54.681Z,22.92
2022-08-28T07:54:23.038Z,22.93
2022-08-28T07:56:51.897Z,22.89
2022-08-28T07:59:21.932Z,22.92
2022-08-28T08:01:52.090Z,22.94
2022-08-28T08:04:21.654Z,22.71
2022-08-28T08:06:53.243Z,22.93
2022-08-28T08:09:25.252Z,22.94
2022-08-28T08:11:53.856Z,22.92
2022-08-28T08:14:21.989Z,22.92
2022-08-28T08:16:51.730Z,22.91
2022-08-28T08:19:20.418Z,22.93
2022-08-28T08:21:53.311Z,22.97
2022-08-28T08:24:26.571Z,22.95
2022-08-28T08:26:59.550Z,22.83
2022-08-28T08:29:31.462Z,22.94
2022-08-28T08:32:05.532Z,22.94
2022-08-28T08:34:34.696Z,22.93
2022-08-28T08:37:02.908Z,22.92
2022-08-28T08:39:32.508Z,22.93
2022-08-28T08:42:03.985Z,22.92
2022-08-28T08:44:35.622Z,22.92
2022-08-28T08:47:14.861Z,22.90
2022-08-28T08:49:49.094Z,22.92
2022-08-28T08:52:34.460Z,22.92
2022-08-28T08:55:20.348Z,22.93
2022-08-28T08:57:52.814Z,22.92
2022-08-28T09:00:21.432Z,22.98
2022-08-28T09:02:56.011Z,23.05
2022-08-28T09:05:38.002Z,23.07
2022-08-28T09:08:08.988Z,23.09
2022-08-28T09:10:48.934Z,23.10
2022-08-28T09:13:25.262Z,23.07
2022-08-28T09:15:53.538Z,23.12
2022-08-28T09:18:25.044Z,23.10
2022-08-28T09:20:54.365Z,23.09
2022-08-28T09:23:23.922Z,23.12
2022-08-28T09:25:56.664Z,23.08
2022-08-28T09:28:32.052Z,23.11
2022-08-28T09:31:06.770Z,23.05
2022-08-28T09:33:41.810Z,23.10
2022-08-28T09:36:25.422Z,22.90
2022-08-28T09:39:11.143Z,23.09
2022-08-28T09:42:06.328Z,23.13
2022-08-28T09:44:34.752Z,23.12
2022-08-28T09:47:02.892Z,23.12
2022-08-28T09:49:31.966Z,23.13
2022-08-28T09:52:01.733Z,23.09
2022-08-28T09:54:35.486Z,23.14
2022-08-28T09:57:05.541Z,23.05
2022-08-28T09:59:33.826Z,23.09
2022-08-28T10:02:24.788Z,23.14
2022-08-28T10:05:03.474Z,22.98
2022-08-28T10:07:41.365Z,23.07
2022-08-28T10:10:21.504Z,23.10
2022-08-28T10:13:01.665Z,23.13
2022-08-28T10:15:42.952Z,23.16
2022-08-28T10:18:30.174Z,23.17
2022-08-28T10:21:10.902Z,23.14
2022-08-28T10:23:54.124Z,23.11
2022-08-28T10:26:35.151Z,23.12
2022-08-28T10:29:25.143Z,23.14
2022-08-28T10:32:06.081Z,23.11
2022-08-28T10:34:53.083Z,23.07
2022-08-28T10:37:30.590Z,23.08
2022-08-28T10:40:04.739Z,23.10
2022-08-28T10:42:37.521Z,22.92
2022-08-28T10:45:13.084Z,23.11
2022-08-28T10:47:45.698Z,23.12
2022-08-28T10:50:20.091Z,22.96
2022-08-28T10:52:54.840Z,23.10
2022-08-28T10:55:26.590Z,23.11
2022-08-28T10:57:59.066Z,23.09
2022-08-28T11:00:29.747Z,23.08
2022-08-28T11:03:00.592Z,23.08
2022-08-28T11:05:33.799Z,23.09
2022-08-28T11:08:06.997Z,23.10
2022-08-28T11:10:51.046Z,23.08
2022-08-28T11:13:42.709Z,23.10
2022-08-28T11:16:21.600Z,23.09
2022-08-28T11:19:31.677Z,23.07
2022-08-28T11:22:09.691Z,23.07
2022-08-28T11:24:47.369Z,23.09
2022-08-28T11:27:29.558Z,23.05
2022-08-28T11:30:03.847Z,23.08
2022-08-28T11:32:56.942Z,23.13
2022-08-28T11:35:45.813Z,23.10
2022-08-28T11:38:34.032Z,22.89
2022-08-28T11:41:14.664Z,23.06
2022-08-28T11:43:44.893Z,23.07
2022-08-28T11:46:26.460Z,23.04
2022-08-28T11:48:56.711Z,23.00
2022-08-28T11:51:57.758Z,23.11
2022-08-28T11:54:41.294Z,23.04
2022-08-28T11:57:18.182Z,23.19
2022-08-28T12:00:07.163Z,23.27
2022-08-28T12:02:51.118Z,23.46
2022-08-28T12:05:41.025Z,23.62
2022-08-28T12:08:13.838Z,23.86
2022-08-28T12:10:57.868Z,23.90
2022-08-28T12:13:50.250Z,23.90
2022-08-28T12:16:18.781Z,24.11
2022-08-28T12:19:05.653Z,24.06
2022-08-28T12:21:41.522Z,24.02
2022-08-28T12:24:22.243Z,23.93
2022-08-28T12:26:57.041Z,23.86
2022-08-28T12:29:33.639Z,23.83
2022-08-28T12:32:27.322Z,23.76
2022-08-28T12:35:11.198Z,23.71
2022-08-28T12:37:52.203Z,23.68
2022-08-28T12:40:23.928Z,23.65
2022-08-28T12:42:56.053Z,23.58
2022-08-28T12:45:30.754Z,23.51
2022-08-28T12:48:04.143Z,23.58
2022-08-28T12:50:36.114Z,23.53
2022-08-28T12:53:08.066Z,23.48
2022-08-28T12:55:38.380Z,23.45
2022-08-28T12:58:13.031Z,23.44
2022-08-28T13:00:53.742Z,23.45
2022-08-28T13:03:22.622Z,23.42
2022-08-28T13:05:58.757Z,23.44
2022-08-28T13:08:26.900Z,23.46
2022-08-28T13:10:55.820Z,23.44
2022-08-28T13:13:31.377Z,23.44
2022-08-28T13:16:03.758Z,23.44
2022-08-28T13:18:49.924Z,23.44
2022-08-28T13:21:33.213Z,23.45
2022-08-28T13:24:27.664Z,23.43
2022-08-28T13:27:05.869Z,23.44
2022-08-28T13:29:34.598Z,23.40
2022-08-28T13:32:06.809Z,23.43
2022-08-28T13:34:36.920Z,23.40
2022-08-28T13:37:20.054Z,23.43
2022-08-28T13:39:49.409Z,23.43
2022-08-28T13:42:19.140Z,23.41
2022-08-28T13:44:50.625Z,23.39
2022-08-28T13:47:20.614Z,23.39
2022-08-28T13:49:49.151Z,23.39
2022-08-28T13:52:17.661Z,23.36
2022-08-28T13:54:46.896Z,23.38
2022-08-28T13:57:15.407Z,23.37
2022-08-28T13:59:43.493Z,23.37
2022-08-28T14:02:33.768Z,23.37
2022-08-28T14:05:03.325Z,23.37
2022-08-28T14:07:31.684Z,23.37
2022-08-28T14:09:59.962Z,23.25
2022-08-28T14:12:32.738Z,23.28
2022-08-28T14:15:02.301Z,23.30
2022-08-28T14:17:30.542Z,23.31
2022-08-28T14:19:59.893Z,23.31
2022-08-28T14:22:31.113Z,23.29
2022-08-28T14:24:59.125Z,23.27
2022-08-28T14:27:27.106Z,23.27
2022-08-28T14:29:56.529Z,23.21
2022-08-28T14:32:25.964Z,23.27
2022-08-28T14:34:54.040Z,23.27
2022-08-28T14:37:22.368Z,23.27
2022-08-28T14:39:51.826Z,23.25
2022-08-28T14:42:19.903Z,23.24
2022-08-28T14:44:47.940Z,23.25
2022-08-28T14:47:16.342Z,23.25
2022-08-28T14:49:44.685Z,23.25
2022-08-28T14:52:12.950Z,23.24
2022-08-28T14:54:41.796Z,23.25
2022-08-28T14:57:12.065Z,23.25
2022-08-28T14:59:40.294Z,23.23
2022-08-28T15:02:08.913Z,23.23
2022-08-28T15:04:38.142Z,23.22
2022-08-28T15:07:10.907Z,23.20
2022-08-28T15:09:41.275Z,23.19
2022-08-28T15:12:11.459Z,23.18
2022-08-28T15:14:40.729Z,23.18
2022-08-28T15:17:19.968Z,23.18
2022-08-28T15:19:47.957Z,23.20
2022-08-28T15:22:27.026Z,23.21
2022-08-28T15:24:55.775Z,23.18
2022-08-28T15:27:25.542Z,23.21
2022-08-28T15:29:54.023Z,23.19
2022-08-28T15:32:22.108Z,23.21
2022-08-28T15:34:50.724Z,23.19
2022-08-28T15:37:18.947Z,23.19
2022-08-28T15:40:04.324Z,23.22
2022-08-28T15:42:33.796Z,23.21
2022-08-28T15:45:02.084Z,23.20
2022-08-28T15:47:30.144Z,23.23
2022-08-28T15:49:58.201Z,23.23
2022-08-28T15:52:26.610Z,23.24
2022-08-28T15:54:54.754Z,23.23
2022-08-28T15:57:22.962Z,23.21
2022-08-28T15:59:52.412Z,23.20
2022-08-28T16:02:21.245Z,23.21
2022-08-28T16:04:49.752Z,23.22
2022-08-28T16:07:18.312Z,23.19
2022-08-28T16:09:46.575Z,23.18
2022-08-28T16:12:14.662Z,23.21
2022-08-28T16:14:42.753Z,23.22
2022-08-28T16:17:12.373Z,23.21
2022-08-28T16:19:41.163Z,23.13
2022-08-28T16:22:09.732Z,23.14
2022-08-28T16:24:38.266Z,23.14
2022-08-28T16:27:09.532Z,23.14
2022-08-28T16:29:41.643Z,23.15
2022-08-28T16:32:11.838Z,23.15
2022-08-28T16:34:40.349Z,23.16
2022-08-28T16:37:12.727Z,23.15
2022-08-28T16:39:40.846Z,23.15
2022-08-28T16:42:09.049Z,23.16
2022-08-28T16:44:37.606Z,23.15
2022-08-28T16:47:05.854Z,23.14
2022-08-28T16:49:35.423Z,23.14
2022-08-28T16:52:03.945Z,23.11
2022-08-28T16:54:32.595Z,23.13
2022-08-28T16:57:00.663Z,23.16
2022-08-28T16:59:28.834Z,23.15
2022-08-28T17:01:57.073Z,23.15
2022-08-28T17:04:25.833Z,23.15
2022-08-28T17:06:55.674Z,23.18
2022-08-28T17:09:25.422Z,23.18
2022-08-28T17:11:53.561Z,23.18
2022-08-28T17:14:22.045Z,23.19
2022-08-28T17:16:50.749Z,23.07
2022-08-28T17:19:19.377Z,23.14
2022-08-28T17:22:05.250Z,23.17
2022-08-28T17:24:34.970Z,23.17
2022-08-28T17:27:05.638Z,23.15
2022-08-28T17:29:34.186Z,23.14
2022-08-28T17:32:02.700Z,23.07
2022-08-28T17:34:31.059Z,23.13
2022-08-28T17:36:59.349Z,23.15
2022-08-28T17:39:27.417Z,23.15
2022-08-28T17:41:56.928Z,23.15
2022-08-28T17:44:24.994Z,23.14
2022-08-28T17:46:53.040Z,23.14
2022-08-28T17:49:22.434Z,23.07
2022-08-28T17:51:51.232Z,23.11
2022-08-28T17:54:21.582Z,23.11
2022-08-28T17:56:49.964Z,23.12
2022-08-28T17:59:20.190Z,23.11
2022-08-28T18:01:48.866Z,23.10
2022-08-28T18:04:23.851Z,23.15
2022-08-28T18:06:54.617Z,23.16
2022-08-28T18:09:24.138Z,23.14
2022-08-28T18:11:52.410Z,22.69
2022-08-28T18:14:22.235Z,23.14
2022-08-28T18:16:50.702Z,23.17
2022-08-28T18:19:19.072Z,23.16
2022-08-28T18:21:48.426Z,23.18
2022-08-28T18:24:17.268Z,23.19
2022-08-28T18:26:45.653Z,23.20
2022-08-28T18:29:14.203Z,23.21
2022-08-28T18:31:44.280Z,23.22
2022-08-28T18:34:12.701Z,23.21
2022-08-28T18:36:41.673Z,23.20
2022-08-28T18:39:10.901Z,23.22
2022-08-28T18:41:43.790Z,23.22
2022-08-28T18:44:15.779Z,22.99
2022-08-28T18:46:48.676Z,23.21
2022-08-28T18:49:16.844Z,23.20
2022-08-28T18:51:46.094Z,23.19
2022-08-28T18:54:16.542Z,23.13
2022-08-28T18:56:45.447Z,23.17
2022-08-28T18:59:13.777Z,23.19
2022-08-28T19:01:42.088Z,23.19
2022-08-28T19:04:11.973Z,23.22
2022-08-28T19:06:41.769Z,23.21
2022-08-28T19:09:19.246Z,23.22
2022-08-28T19:11:49.205Z,23.23
2022-08-28T19:14:17.737Z,23.23
2022-08-28T19:16:46.440Z,23.22
2022-08-28T19:19:16.626Z,23.23
2022-08-28T19:21:46.304Z,23.20
2022-08-28T19:24:17.853Z,23.22
2022-08-28T19:26:46.444Z,23.22
2022-08-28T19:29:15.481Z,23.23
2022-08-28T19:31:44.831Z,23.24
2022-08-28T19:34:13.236Z,23.23
2022-08-28T19:36:42.969Z,23.19
2022-08-28T19:39:13.580Z,23.22
2022-08-28T19:41:43.456Z,23.18
2022-08-28T19:44:12.604Z,22.93
2022-08-28T19:46:41.184Z,23.08
2022-08-28T19:49:09.626Z,23.14
2022-08-28T19:51:39.694Z,23.14
2022-08-28T19:54:11.258Z,23.13
2022-08-28T19:56:40.062Z,23.15
2022-08-28T19:59:08.993Z,23.14
2022-08-28T20:01:39.372Z,23.13
2022-08-28T20:04:09.467Z,23.15
2022-08-28T20:06:41.038Z,23.14
2022-08-28T20:09:13.036Z,23.13
2022-08-28T20:11:44.297Z,23.06
2022-08-28T20:14:12.419Z,23.10
2022-08-28T20:16:42.620Z,23.10
2022-08-28T20:19:12.553Z,23.11
2022-08-28T20:21:44.278Z,23.11
2022-08-28T20:24:17.649Z,23.12
2022-08-28T20:26:46.040Z,23.08
2022-08-28T20:29:15.226Z,23.09
2022-08-28T20:31:46.309Z,23.10
2022-08-28T20:34:17.195Z,23.06
2022-08-28T20:36:45.434Z,23.11
2022-08-28T20:39:15.777Z,23.11
2022-08-28T20:41:46.064Z,23.10
2022-08-28T20:44:16.398Z,23.09
2022-08-28T20:46:44.634Z,23.11
2022-08-28T20:49:21.796Z,23.11
2022-08-28T20:52:03.740Z,23.10
2022-08-28T20:54:38.124Z,23.09
2022-08-28T20:57:09.001Z,23.09
2022-08-28T20:59:40.140Z,23.09
2022-08-28T21:02:11.186Z,23.11
2022-08-28T21:04:41.642Z,23.14
2022-08-28T21:07:10.741Z,23.08
2022-08-28T21:09:58.110Z,23.12
2022-08-28T21:12:29.033Z,23.10
2022-08-28T21:14:57.089Z,23.10
2022-08-28T21:17:29.638Z,23.12
2022-08-28T21:19:59.555Z,23.12
2022-08-28T21:22:27.703Z,23.12
2022-08-28T21:24:57.419Z,23.12
2022-08-28T21:27:25.542Z,23.13
2022-08-28T21:29:56.747Z,23.13
2022-08-28T21:32:25.169Z,23.12
2022-08-28T21:34:54.624Z,23.09
2022-08-28T21:37:22.878Z,23.10
2022-08-28T21:39:50.914Z,23.11
2022-08-28T21:42:20.303Z,23.10
2022-08-28T21:44:51.925Z,23.09
2022-08-28T21:47:21.577Z,23.06
2022-08-28T21:49:50.371Z,23.07
2022-08-28T21:52:18.638Z,23.06
2022-08-28T21:54:47.134Z,23.07
2022-08-28T21:57:16.574Z,23.05
2022-08-28T21:59:46.048Z,23.05
2022-08-28T22:02:14.158Z,23.05
2022-08-28T22:04:42.284Z,23.07
2022-08-28T22:07:12.079Z,23.04
2022-08-28T22:09:40.114Z,23.04
2022-08-28T22:12:09.304Z,23.06
2022-08-28T22:14:37.542Z,23.06
2022-08-28T22:17:11.367Z,23.05
2022-08-28T22:19:40.339Z,23.06
2022-08-28T22:22:28.098Z,23.07
2022-08-28T22:24:56.465Z,23.06
2022-08-28T22:27:25.586Z,23.06
2022-08-28T22:29:53.811Z,23.07
2022-08-28T22:32:26.770Z,22.62
2022-08-28T22:34:55.891Z,23.04
2022-08-28T22:37:25.885Z,23.04
2022-08-28T22:39:54.050Z,23.01
2022-08-28T22:42:23.159Z,23.01
2022-08-28T22:44:51.244Z,23.01
2022-08-28T22:47:19.284Z,23.01
2022-08-28T22:49:48.743Z,23.03
2022-08-28T22:52:17.501Z,23.01
2022-08-28T22:54:45.700Z,23.02
2022-08-28T22:57:14.929Z,23.02
2022-08-28T22:59:43.095Z,23.02
2022-08-28T23:02:12.379Z,23.03
2022-08-28T23:04:40.682Z,23.03
2022-08-28T23:07:10.650Z,23.05
2022-08-28T23:09:41.537Z,23.04
2022-08-28T23:12:10.581Z,23.04
2022-08-28T23:14:38.699Z,23.04
2022-08-28T23:17:06.821Z,23.03
2022-08-28T23:19:35.269Z,23.04
2022-08-28T23:22:03.346Z,23.01
2022-08-28T23:24:32.805Z,22.89
2022-08-28T23:27:19.468Z,23.04
2022-08-28T23:29:53.209Z,23.04
2022-08-28T23:32:21.597Z,23.04
2022-08-28T23:34:49.767Z,23.04
2022-08-28T23:37:18.006Z,23.06
2022-08-28T23:39:47.687Z,23.06
2022-08-28T23:42:15.698Z,22.96
2022-08-28T23:44:43.737Z,23.04
2022-08-28T23:47:13.837Z,22.83
2022-08-28T23:49:42.933Z,23.03
2022-08-28T23:52:11.249Z,23.04
2022-08-28T23:54:40.188Z,23.03
2022-08-28T23:57:10.997Z,22.97
2022-08-28T23:59:39.215Z,22.98
